createdAt,value
2018-08-20T00:01:27.825Z,15.10
2018-08-20T00:04:01.608Z,13.80
2018-08-20T00:06:49.078Z,12.40
2018-08-20T00:09:20.733Z,15.57
2018-08-20T00:11:51.245Z,13.90
2018-08-20T00:14:22.744Z,15.70
2018-08-20T00:16:53.149Z,13.27
2018-08-20T00:19:23.642Z,11.53
2018-08-20T00:21:54.121Z,15.70
2018-08-20T00:24:24.600Z,21.90
2018-08-20T00:26:55.884Z,15.57
2018-08-20T00:29:26.481Z,13.93
2018-08-20T00:31:56.830Z,16.17
2018-08-20T00:34:27.163Z,13.90
2018-08-20T00:36:57.547Z,15.80
2018-08-20T00:39:27.909Z,16.60
2018-08-20T00:41:58.426Z,20.50
2018-08-20T00:44:28.987Z,14.40
2018-08-20T00:46:59.593Z,14.10
2018-08-20T00:49:29.919Z,12.67
2018-08-20T00:52:00.272Z,11.73
2018-08-20T00:54:30.667Z,13.20
2018-08-20T00:57:01.168Z,19.13
2018-08-20T00:59:31.696Z,11.57
2018-08-20T01:02:02.292Z,13.23
2018-08-20T01:04:32.521Z,13.90
2018-08-20T01:07:03.112Z,13.30
2018-08-20T01:09:33.741Z,15.27
2018-08-20T01:12:04.343Z,21.27
2018-08-20T01:14:34.685Z,11.57
2018-08-20T01:17:05.300Z,11.50
2018-08-20T01:19:36.715Z,11.80
2018-08-20T01:22:07.169Z,14.27
2018-08-20T01:24:37.618Z,15.40
2018-08-20T01:27:08.336Z,13.73
2018-08-20T01:29:38.764Z,11.17
2018-08-20T01:32:09.267Z,10.00
2018-08-20T01:34:39.539Z,13.93
2018-08-20T01:37:10.091Z,17.83
2018-08-20T01:39:40.450Z,10.63
2018-08-20T01:42:10.876Z,12.07
2018-08-20T01:44:42.081Z,11.57
2018-08-20T01:47:12.812Z,15.00
2018-08-20T01:49:43.142Z,14.60
2018-08-20T01:52:13.722Z,10.80
2018-08-20T01:54:44.199Z,15.00
2018-08-20T01:57:14.559Z,14.73
2018-08-20T01:59:44.954Z,9.60
2018-08-20T02:02:15.468Z,15.77
2018-08-20T02:04:45.827Z,14.33
2018-08-20T02:07:16.483Z,8.97
2018-08-20T02:09:47.160Z,13.73
2018-08-20T02:12:17.859Z,11.50
2018-08-20T02:14:48.367Z,13.03
2018-08-20T02:17:18.920Z,10.33
2018-08-20T02:19:49.636Z,14.83
2018-08-20T02:22:20.267Z,12.53
2018-08-20T02:24:50.844Z,16.10
2018-08-20T02:27:21.135Z,20.10
2018-08-20T02:29:51.356Z,12.57
2018-08-20T02:32:22.659Z,12.10
2018-08-20T02:34:53.106Z,10.43
2018-08-20T02:37:24.915Z,11.57
2018-08-20T02:39:55.424Z,16.63
2018-08-20T02:42:25.899Z,12.27
2018-08-20T02:44:56.517Z,16.33
2018-08-20T02:47:26.798Z,17.33
2018-08-20T02:49:58.064Z,11.53
2018-08-20T02:52:28.656Z,14.90
2018-08-20T02:54:59.245Z,16.20
2018-08-20T02:57:29.667Z,12.30
2018-08-20T03:00:00.109Z,12.03
2018-08-20T03:02:30.625Z,14.27
2018-08-20T03:05:01.085Z,15.93
2018-08-20T03:07:31.642Z,14.90
2018-08-20T03:10:02.256Z,11.23
2018-08-20T03:12:32.388Z,21.50
2018-08-20T03:15:02.900Z,11.17
2018-08-20T03:17:36.869Z,12.67
2018-08-20T03:20:12.800Z,11.03
2018-08-20T03:22:43.233Z,14.73
2018-08-20T03:25:13.696Z,11.27
2018-08-20T03:27:44.302Z,20.70
2018-08-20T03:30:14.894Z,12.30
2018-08-20T03:32:45.895Z,10.80
2018-08-20T03:35:16.455Z,11.50
2018-08-20T03:37:47.035Z,14.60
2018-08-20T03:40:18.362Z,11.00
2018-08-20T03:42:48.751Z,13.13
2018-08-20T03:45:19.380Z,11.63
2018-08-20T03:47:49.899Z,14.20
2018-08-20T03:50:20.492Z,15.50
2018-08-20T03:52:51.224Z,13.93
2018-08-20T03:55:21.695Z,19.60
2018-08-20T03:57:53.043Z,12.60
2018-08-20T04:00:24.990Z,12.70
2018-08-20T04:02:55.648Z,12.47
2018-08-20T04:05:26.060Z,16.93
2018-08-20T04:07:56.385Z,23.27
2018-08-20T04:10:26.796Z,14.23
2018-08-20T04:12:57.304Z,18.93
2018-08-20T04:15:27.654Z,15.97
2018-08-20T04:17:58.283Z,17.47
2018-08-20T04:20:28.495Z,15.33
2018-08-20T04:22:58.890Z,17.10
2018-08-20T04:25:29.335Z,10.37
2018-08-20T04:27:59.973Z,15.63
2018-08-20T04:30:30.480Z,11.93
2018-08-20T04:33:00.847Z,9.97
2018-08-20T04:35:31.314Z,6.57
2018-08-20T04:38:01.764Z,9.67
2018-08-20T04:40:35.058Z,10.83
2018-08-20T04:43:05.490Z,11.67
2018-08-20T04:45:35.848Z,12.27
2018-08-20T04:48:06.491Z,12.20
2018-08-20T04:50:36.839Z,10.33
2018-08-20T04:53:07.652Z,13.40
2018-08-20T04:55:38.139Z,17.07
2018-08-20T04:58:08.685Z,19.13
2018-08-20T05:00:39.120Z,16.40
2018-08-20T05:03:13.778Z,19.27
2018-08-20T05:05:44.202Z,25.90
2018-08-20T05:08:14.699Z,14.53
2018-08-20T05:10:45.177Z,16.00
2018-08-20T05:13:15.555Z,21.07
2018-08-20T05:15:46.195Z,13.53
2018-08-20T05:18:16.529Z,11.57
2018-08-20T05:20:46.892Z,11.30
2018-08-20T05:23:17.380Z,14.90
2018-08-20T05:25:47.692Z,15.17
2018-08-20T05:28:18.243Z,9.90
2018-08-20T05:30:48.811Z,8.87
2018-08-20T05:33:19.308Z,11.20
2018-08-20T05:35:49.809Z,13.97
2018-08-20T05:38:20.471Z,10.97
2018-08-20T05:40:51.016Z,10.53
2018-08-20T05:43:21.341Z,12.63
2018-08-20T05:45:51.948Z,13.30
2018-08-20T05:48:22.506Z,9.97
2018-08-20T05:50:52.908Z,9.77
2018-08-20T05:53:23.411Z,8.30
2018-08-20T05:55:53.791Z,11.47
2018-08-20T05:58:24.248Z,11.80
2018-08-20T06:00:54.670Z,8.70
2018-08-20T06:03:25.166Z,12.07
2018-08-20T06:05:55.551Z,9.60
2018-08-20T06:08:26.073Z,10.87
2018-08-20T06:10:56.537Z,8.23
2018-08-20T06:13:26.959Z,10.33
2018-08-20T06:15:57.501Z,8.50
2018-08-20T06:18:28.085Z,13.90
2018-08-20T06:20:59.068Z,9.50
2018-08-20T06:23:29.471Z,6.00
2018-08-20T06:26:00.107Z,9.50
2018-08-20T06:28:30.752Z,5.70
2018-08-20T06:31:01.204Z,5.77
2018-08-20T06:33:31.890Z,9.00
2018-08-20T06:36:02.452Z,10.10
2018-08-20T06:38:32.957Z,6.87
2018-08-20T06:41:03.627Z,7.10
2018-08-20T06:43:33.896Z,5.97
2018-08-20T06:46:04.293Z,4.87
2018-08-20T06:48:34.723Z,7.10
2018-08-20T06:51:05.267Z,7.37
2018-08-20T06:53:35.763Z,7.13
2018-08-20T06:56:06.146Z,6.20
2018-08-20T06:58:36.487Z,8.40
2018-08-20T07:01:07.073Z,10.33
2018-08-20T07:03:37.540Z,7.37
2018-08-20T07:06:08.123Z,8.93
2018-08-20T07:08:38.757Z,7.70
2018-08-20T07:11:09.300Z,5.50
2018-08-20T07:13:39.722Z,4.90
2018-08-20T07:16:10.580Z,8.23
2018-08-20T07:18:41.360Z,7.50
2018-08-20T07:21:11.825Z,9.60
2018-08-20T07:23:42.208Z,5.07
2018-08-20T07:26:12.825Z,7.17
2018-08-20T07:28:43.507Z,7.37
2018-08-20T07:31:14.104Z,8.40
2018-08-20T07:33:44.733Z,8.47
2018-08-20T07:36:15.436Z,12.10
2018-08-20T07:38:46.089Z,8.07
2018-08-20T07:41:16.614Z,7.70
2018-08-20T07:43:47.163Z,7.20
2018-08-20T07:46:17.576Z,8.83
2018-08-20T07:48:48.112Z,8.80
2018-08-20T07:51:18.591Z,10.30
2018-08-20T07:53:49.376Z,15.17
2018-08-20T07:56:19.867Z,8.10
2018-08-20T07:58:50.361Z,7.17
2018-08-20T08:01:20.956Z,7.40
2018-08-20T08:03:51.321Z,18.80
2018-08-20T08:06:21.748Z,6.80
2018-08-20T08:08:52.344Z,7.60
2018-08-20T08:11:22.805Z,7.77
2018-08-20T08:13:53.152Z,9.33
2018-08-20T08:16:23.762Z,8.30
2018-08-20T08:18:54.208Z,9.80
2018-08-20T08:21:24.730Z,10.60
2018-08-20T08:23:55.069Z,7.70
2018-08-20T08:26:25.578Z,8.80
2018-08-20T08:28:56.128Z,11.60
2018-08-20T08:31:26.964Z,8.40
2018-08-20T08:33:57.728Z,10.93
2018-08-20T08:36:28.360Z,8.60
2018-08-20T08:38:58.999Z,6.40
2018-08-20T08:41:29.697Z,10.43
2018-08-20T08:44:00.277Z,9.23
2018-08-20T08:46:30.875Z,6.27
2018-08-20T08:49:01.536Z,4.10
2018-08-20T08:51:32.173Z,9.67
2018-08-20T08:54:02.822Z,7.40
2018-08-20T08:56:33.832Z,8.07
2018-08-20T08:59:04.385Z,6.90
2018-08-20T09:01:34.976Z,10.60
2018-08-20T09:04:05.652Z,7.30
2018-08-20T09:06:36.366Z,11.20
2018-08-20T09:09:08.488Z,5.00
2018-08-20T09:11:39.066Z,5.93
2018-08-20T09:14:16.614Z,7.53
2018-08-20T09:16:47.192Z,10.57
2018-08-20T09:19:17.755Z,10.10
2018-08-20T09:21:48.343Z,6.13
2018-08-20T09:24:18.858Z,13.07
2018-08-20T09:26:49.519Z,14.87
2018-08-20T09:29:20.093Z,10.97
2018-08-20T09:31:50.629Z,8.50
2018-08-20T09:34:21.016Z,11.80
2018-08-20T09:36:51.656Z,10.33
2018-08-20T09:39:22.046Z,11.13
2018-08-20T09:41:52.630Z,6.47
2018-08-20T09:44:23.105Z,9.47
2018-08-20T09:46:53.354Z,9.90
2018-08-20T09:49:23.755Z,11.20
2018-08-20T09:51:54.216Z,8.50
2018-08-20T09:54:25.296Z,9.00
2018-08-20T09:56:55.893Z,9.00
2018-08-20T09:59:26.481Z,10.23
2018-08-20T10:01:57.077Z,8.80
2018-08-20T10:04:27.525Z,13.10
2018-08-20T10:06:57.962Z,15.30
2018-08-20T10:09:28.195Z,13.80
2018-08-20T10:11:58.737Z,8.20
2018-08-20T10:14:29.264Z,11.93
2018-08-20T10:16:59.694Z,14.80
2018-08-20T10:19:30.418Z,13.23
2018-08-20T10:22:00.995Z,7.47
2018-08-20T10:24:31.410Z,8.40
2018-08-20T10:27:01.877Z,9.97
2018-08-20T10:29:32.228Z,13.67
2018-08-20T10:32:02.783Z,9.97
2018-08-20T10:34:33.110Z,5.90
2018-08-20T10:37:03.520Z,12.80
2018-08-20T10:39:33.880Z,14.97
2018-08-20T10:42:04.383Z,8.57
2018-08-20T10:44:39.565Z,7.63
2018-08-20T10:47:09.856Z,9.73
2018-08-20T10:49:40.400Z,7.13
2018-08-20T10:52:11.121Z,10.80
2018-08-20T10:54:41.709Z,7.53
2018-08-20T10:57:12.213Z,9.03
2018-08-20T10:59:42.835Z,8.43
2018-08-20T11:02:13.352Z,8.93
2018-08-20T11:04:43.952Z,8.07
2018-08-20T11:07:21.719Z,9.67
2018-08-20T11:09:52.133Z,8.70
2018-08-20T11:12:22.632Z,9.70
2018-08-20T11:14:53.199Z,11.33
2018-08-20T11:17:23.527Z,9.50
2018-08-20T11:19:53.819Z,9.73
2018-08-20T11:22:24.302Z,7.40
2018-08-20T11:24:54.794Z,10.90
2018-08-20T11:27:25.368Z,14.53
2018-08-20T11:29:55.967Z,9.33
2018-08-20T11:32:26.443Z,14.37
2018-08-20T11:34:56.823Z,9.87
2018-08-20T11:37:27.284Z,6.53
2018-08-20T11:39:57.583Z,8.90
2018-08-20T11:42:28.117Z,15.23
2018-08-20T11:44:58.498Z,11.57
2018-08-20T11:47:29.349Z,9.83
2018-08-20T11:50:02.077Z,13.27
2018-08-20T11:52:32.766Z,12.17
2018-08-20T11:55:03.351Z,9.63
2018-08-20T11:57:33.832Z,9.30
2018-08-20T12:00:04.329Z,10.40
2018-08-20T12:02:34.755Z,8.43
2018-08-20T12:05:05.591Z,12.67
2018-08-20T12:07:36.088Z,9.90
2018-08-20T12:10:07.932Z,14.57
2018-08-20T12:12:38.887Z,6.80
2018-08-20T12:15:11.913Z,5.80
2018-08-20T12:17:43.209Z,8.40
2018-08-20T12:20:13.714Z,8.77
2018-08-20T12:22:45.043Z,10.77
2018-08-20T12:25:16.148Z,12.27
2018-08-20T12:27:46.541Z,9.57
2018-08-20T12:30:17.083Z,11.40
2018-08-20T12:32:47.613Z,11.03
2018-08-20T12:35:18.096Z,13.60
2018-08-20T12:37:48.484Z,10.50
2018-08-20T12:40:19.039Z,8.60
2018-08-20T12:42:49.327Z,17.37
2018-08-20T12:45:19.708Z,7.37
2018-08-20T12:47:50.212Z,9.43
2018-08-20T12:50:20.579Z,10.00
2018-08-20T12:52:50.921Z,9.07
2018-08-20T12:55:21.316Z,9.73
2018-08-20T12:57:51.917Z,8.90
2018-08-20T13:00:22.450Z,15.40
2018-08-20T13:02:52.985Z,11.33
2018-08-20T13:05:23.479Z,9.03
2018-08-20T13:07:53.728Z,8.77
2018-08-20T13:10:24.128Z,11.07
2018-08-20T13:12:54.603Z,12.03
2018-08-20T13:15:25.202Z,12.30
2018-08-20T13:17:55.569Z,10.10
2018-08-20T13:20:26.093Z,11.43
2018-08-20T13:22:56.608Z,9.33
2018-08-20T13:25:27.134Z,12.40
2018-08-20T13:27:57.687Z,10.20
2018-08-20T13:30:28.225Z,12.83
2018-08-20T13:32:58.587Z,13.40
2018-08-20T13:35:29.052Z,8.47
2018-08-20T13:37:59.648Z,12.50
2018-08-20T13:40:30.241Z,11.17
2018-08-20T13:43:00.927Z,11.50
2018-08-20T13:45:31.508Z,9.30
2018-08-20T13:48:01.996Z,10.53
2018-08-20T13:50:32.364Z,7.13
2018-08-20T13:53:02.929Z,8.50
2018-08-20T13:55:33.320Z,9.33
2018-08-20T13:58:03.924Z,13.33
2018-08-20T14:00:34.521Z,11.10
2018-08-20T14:03:05.077Z,9.80
2018-08-20T14:05:35.467Z,6.57
2018-08-20T14:08:07.069Z,5.67
2018-08-20T14:10:37.623Z,7.43
2018-08-20T14:13:08.436Z,8.33
2018-08-20T14:15:38.987Z,6.83
2018-08-20T14:18:09.753Z,7.20
2018-08-20T14:20:43.027Z,4.93
2018-08-20T14:23:13.446Z,9.30
2018-08-20T14:25:43.809Z,5.20
2018-08-20T14:28:14.286Z,14.13
2018-08-20T14:30:44.788Z,6.87
2018-08-20T14:33:15.293Z,5.57
2018-08-20T14:35:45.654Z,5.60
2018-08-20T14:38:16.099Z,5.77
2018-08-20T14:40:46.480Z,6.27
2018-08-20T14:43:17.107Z,6.23
2018-08-20T14:45:52.556Z,5.90
2018-08-20T14:48:23.172Z,5.77
2018-08-20T14:50:53.666Z,7.07
2018-08-20T14:53:24.395Z,7.87
2018-08-20T14:55:54.952Z,4.30
2018-08-20T14:58:25.555Z,4.60
2018-08-20T15:00:55.905Z,8.40
2018-08-20T15:03:26.488Z,10.17
2018-08-20T15:05:56.969Z,6.30
2018-08-20T15:08:27.233Z,3.40
2018-08-20T15:10:57.731Z,6.10
2018-08-20T15:13:28.168Z,7.97
2018-08-20T15:15:58.672Z,6.83
2018-08-20T15:18:29.177Z,3.47
2018-08-20T15:20:59.644Z,6.63
2018-08-20T15:23:30.231Z,10.93
2018-08-20T15:26:00.732Z,5.37
2018-08-20T15:28:31.087Z,5.33
2018-08-20T15:31:01.549Z,8.63
2018-08-20T15:33:32.449Z,6.33
2018-08-20T15:36:02.872Z,6.40
2018-08-20T15:38:33.425Z,6.37
2018-08-20T15:41:04.049Z,6.77
2018-08-20T15:43:34.767Z,6.20
2018-08-20T15:46:05.324Z,7.40
2018-08-20T15:48:35.662Z,4.53
2018-08-20T15:51:08.609Z,5.60
2018-08-20T15:53:39.067Z,8.10
2018-08-20T15:56:09.579Z,11.70
2018-08-20T15:58:39.945Z,5.80
2018-08-20T16:01:10.423Z,4.10
2018-08-20T16:03:40.799Z,6.70
2018-08-20T16:06:11.174Z,7.90
2018-08-20T16:08:41.678Z,11.70
2018-08-20T16:11:12.265Z,6.60
2018-08-20T16:13:42.986Z,9.33
2018-08-20T16:16:13.408Z,7.43
2018-08-20T16:18:43.828Z,8.90
2018-08-20T16:21:16.529Z,3.73
2018-08-20T16:23:46.831Z,4.47
2018-08-20T16:26:17.398Z,7.53
2018-08-20T16:28:47.767Z,4.33
2018-08-20T16:31:18.359Z,4.53
2018-08-20T16:33:48.904Z,6.43
2018-08-20T16:36:19.468Z,8.43
2018-08-20T16:38:49.952Z,9.10
2018-08-20T16:41:20.294Z,2.30
2018-08-20T16:43:50.755Z,2.83
2018-08-20T16:46:22.124Z,4.37
2018-08-20T16:48:52.648Z,2.03
2018-08-20T16:51:23.073Z,7.80
2018-08-20T16:53:53.684Z,3.87
2018-08-20T16:56:24.335Z,1.47
2018-08-20T16:58:54.844Z,2.87
2018-08-20T17:01:25.363Z,3.13
2018-08-20T17:03:55.944Z,4.50
2018-08-20T17:06:35.836Z,4.63
2018-08-20T17:09:06.590Z,2.00
2018-08-20T17:11:37.023Z,1.97
2018-08-20T17:14:07.537Z,1.70
2018-08-20T17:16:37.853Z,1.80
2018-08-20T17:19:08.433Z,3.03
2018-08-20T17:21:39.036Z,5.53
2018-08-20T17:24:09.621Z,3.47
2018-08-20T17:26:40.264Z,1.57
2018-08-20T17:29:12.252Z,1.17
2018-08-20T17:31:42.610Z,1.43
2018-08-20T17:34:13.064Z,1.53
2018-08-20T17:36:43.541Z,2.83
2018-08-20T17:39:13.951Z,2.20
2018-08-20T17:41:44.665Z,2.30
2018-08-20T17:44:15.128Z,0.70
2018-08-20T17:46:45.721Z,1.83
2018-08-20T17:49:20.354Z,2.20
2018-08-20T17:51:51.380Z,2.67
2018-08-20T17:54:21.776Z,0.90
2018-08-20T17:56:52.266Z,1.37
2018-08-20T17:59:24.818Z,1.33
2018-08-20T18:01:55.394Z,1.10
2018-08-20T18:04:25.776Z,2.03
2018-08-20T18:06:57.161Z,1.27
2018-08-20T18:09:27.757Z,1.40
2018-08-20T18:11:58.218Z,1.23
2018-08-20T18:14:28.592Z,2.60
2018-08-20T18:16:58.992Z,1.33
2018-08-20T18:19:29.559Z,3.30
2018-08-20T18:22:00.000Z,1.60
2018-08-20T18:24:30.458Z,3.23
2018-08-20T18:27:01.003Z,4.23
2018-08-20T18:29:31.295Z,5.83
2018-08-20T18:32:03.480Z,1.60
2018-08-20T18:34:33.978Z,3.27
2018-08-20T18:37:05.159Z,1.80
2018-08-20T18:39:35.573Z,1.93
2018-08-20T18:42:15.218Z,1.80
2018-08-20T18:44:46.716Z,3.13
2018-08-20T18:47:18.655Z,2.30
2018-08-20T18:49:54.564Z,1.53
2018-08-20T18:52:26.756Z,6.10
2018-08-20T18:54:58.372Z,2.23
2018-08-20T18:57:36.744Z,2.10
2018-08-20T19:00:15.338Z,1.60
2018-08-20T19:02:51.300Z,1.63
2018-08-20T19:05:22.111Z,6.53
2018-08-20T19:07:52.719Z,6.30
2018-08-20T19:10:30.320Z,1.60
2018-08-20T19:13:00.772Z,1.77
2018-08-20T19:15:39.060Z,1.80
2018-08-20T19:18:13.336Z,1.37
2018-08-20T19:20:44.467Z,2.20
2018-08-20T19:23:14.849Z,2.80
2018-08-20T19:25:45.299Z,2.50
2018-08-20T19:28:20.880Z,3.27
2018-08-20T19:30:52.356Z,1.67
2018-08-20T19:33:25.123Z,1.83
2018-08-20T19:35:56.097Z,1.67
2018-08-20T19:38:26.644Z,1.83
2018-08-20T19:41:04.743Z,1.83
2018-08-20T19:43:40.808Z,1.90
2018-08-20T19:46:11.456Z,13.17
2018-08-20T19:48:44.228Z,3.07
2018-08-20T19:51:15.160Z,5.90
2018-08-20T19:53:46.760Z,1.30
2018-08-20T19:56:17.127Z,2.00
2018-08-20T19:58:47.605Z,5.73
2018-08-20T20:01:19.005Z,1.40
2018-08-20T20:03:50.558Z,1.30
2018-08-20T20:06:21.175Z,3.97
2018-08-20T20:08:51.636Z,1.30
2018-08-20T20:11:26.952Z,1.77
2018-08-20T20:14:00.645Z,3.80
2018-08-20T20:16:48.346Z,2.10
2018-08-20T20:19:19.347Z,2.20
2018-08-20T20:21:49.962Z,1.70
2018-08-20T20:24:20.526Z,2.20
2018-08-20T20:26:50.983Z,2.97
2018-08-20T20:29:21.541Z,1.50
2018-08-20T20:31:52.256Z,4.50
2018-08-20T20:34:22.539Z,3.37
2018-08-20T20:36:52.948Z,1.97
2018-08-20T20:39:23.556Z,3.70
2018-08-20T20:41:54.062Z,1.50
2018-08-20T20:44:24.580Z,2.10
2018-08-20T20:46:55.168Z,1.40
2018-08-20T20:49:25.732Z,1.50
2018-08-20T20:51:56.192Z,1.23
2018-08-20T20:54:26.602Z,2.53
2018-08-20T20:56:57.199Z,2.07
2018-08-20T20:59:27.692Z,1.97
2018-08-20T21:01:58.163Z,1.17
2018-08-20T21:04:28.856Z,1.60
2018-08-20T21:06:59.431Z,1.17
2018-08-20T21:09:33.928Z,4.40
2018-08-20T21:12:04.600Z,1.30
2018-08-20T21:14:35.180Z,1.47
2018-08-20T21:17:05.735Z,2.00
2018-08-20T21:19:36.657Z,3.10
2018-08-20T21:22:08.620Z,3.93
2018-08-20T21:24:40.509Z,3.70
2018-08-20T21:27:19.320Z,5.23
2018-08-20T21:29:49.994Z,3.33
2018-08-20T21:32:20.501Z,3.60
2018-08-20T21:34:50.748Z,4.50
2018-08-20T21:37:21.175Z,2.47
2018-08-20T21:39:52.013Z,2.00
2018-08-20T21:42:33.973Z,5.43
2018-08-20T21:45:04.640Z,1.87
2018-08-20T21:47:35.053Z,1.53
2018-08-20T21:50:06.056Z,3.33
2018-08-20T21:52:36.296Z,0.83
2018-08-20T21:55:08.148Z,1.17
2018-08-20T21:57:44.025Z,2.00
2018-08-20T22:00:17.132Z,2.13
2018-08-20T22:02:52.779Z,2.53
2018-08-20T22:05:23.192Z,3.80
2018-08-20T22:07:56.213Z,5.97
2018-08-20T22:10:28.577Z,9.10
2018-08-20T22:12:59.132Z,2.30
2018-08-20T22:15:29.503Z,1.60
2018-08-20T22:17:59.959Z,2.40
2018-08-20T22:20:30.522Z,4.30
2018-08-20T22:23:11.919Z,2.37
2018-08-20T22:25:31.804Z,2.10
2018-08-20T22:28:02.512Z,0.80
2018-08-20T22:30:35.940Z,3.00
2018-08-20T22:33:06.563Z,2.70
2018-08-20T22:35:37.068Z,2.57
2018-08-20T22:38:07.579Z,6.83
2018-08-20T22:40:37.952Z,3.07
2018-08-20T22:43:08.644Z,3.13
2018-08-20T22:45:39.857Z,2.00
2018-08-20T22:48:10.215Z,3.10
2018-08-20T22:50:40.672Z,5.50
2018-08-20T22:53:11.685Z,0.90
2018-08-20T22:56:00.536Z,6.83
2018-08-20T22:58:30.993Z,5.23
2018-08-20T23:01:01.448Z,2.10
2018-08-20T23:03:31.771Z,5.03
2018-08-20T23:06:02.168Z,3.33
2018-08-20T23:08:33.990Z,3.33
2018-08-20T23:11:05.013Z,2.97
2018-08-20T23:13:35.668Z,4.40
2018-08-20T23:16:06.261Z,2.87
2018-08-20T23:18:37.268Z,4.50
2018-08-20T23:21:07.858Z,4.40
2018-08-20T23:23:38.516Z,3.13
2018-08-20T23:26:10.413Z,2.97
2018-08-20T23:28:41.867Z,2.70
2018-08-20T23:31:12.721Z,1.60
2018-08-20T23:33:43.259Z,4.10
2018-08-20T23:36:13.740Z,1.67
2018-08-20T23:38:44.325Z,2.03
2018-08-20T23:41:14.647Z,1.40
2018-08-20T23:43:49.935Z,2.20
2018-08-20T23:46:41.608Z,3.93
2018-08-20T23:49:12.029Z,4.43
2018-08-20T23:51:42.620Z,1.10
2018-08-20T23:54:14.145Z,1.97
2018-08-20T23:56:44.628Z,2.73
2018-08-20T23:59:14.975Z,2.80
